Aeroporto :
LOGIN :

Iscrizione | Disclaimer

   EN    FR    IT 

 










Sommario :    VFR   VFR Marginale   IFR   IFR Intensivo   IFR Molto Intensivo
Visibilità : 
Base nubi : 
>= 8 km
>= 3000ft
5 / 8 km
1000 / 3000 ft
1500m / 5 km
500 / 1000 ft
800 / 1500m
200 / 500 ft
< 800m
< 200 ft
Simboli :   Temporali  Nebbia  Neve Forte  Precipitazioni Forti  Vento > 20 kt
SIGMETs :   Varie  Temporali  Ghiacco  Turbolenza  Onda orograficha  Ceneri Vulcaniche







- Altitudine del aeroporto : 412 ft
- Codice IATA : ORE
- Carte del aeroporto


LFOJ - Orleans

ULTIMO METAR :
  • 240630Z AUTO 05005KT CAVOK 14/10 Q1023

METARs OBSOLETI :
  • 240600Z AUTO 05003KT CAVOK 13/10 Q1023
  • 240530Z AUTO 04003KT CAVOK 12/09 Q1023
  • 240500Z AUTO 03003KT CAVOK 12/09 Q1023
  • 240430Z AUTO 04005KT CAVOK 12/09 Q1023
  • 240400Z AUTO 03004KT CAVOK 11/09 Q1023

TAF TAF LFOJ
Valido dal 23 a 09 ore il 24 a 09 ore UTC


230800Z 2309/2409 05011KT CAVOK
TEMPO 2311/2317 04010G20KT
Nessun NOTAM noto per questo aeroporto.



MetMap, La meteo Aeronautica in un colpo d'occhio ! - Copyright ORBIFLY Dicembre 2007 - Disclaimer

ORBIFLY MET'MAP TEAM :

Programmazione e sviluppo : Alexandra Zaïnal
Concezione e sviluppo : Baudouin d'Aumeries
Co-Programmazione e sviluppo : Marc-Olivier Méhu
Supporto tecnico e logistico : Manuel Goepfert
Aiuto per la traduzione : Arnaldo La Scala

Contatto : metmap@orbifly.com




FONTI E CREDITI :

   NOAA